createdAt,value
2023-08-22T00:01:02.145Z,21.12
2023-08-22T00:03:31.774Z,21.15
2023-08-22T00:06:01.201Z,21.12
2023-08-22T00:08:30.652Z,21.02
2023-08-22T00:11:00.506Z,21.03
2023-08-22T00:13:30.012Z,21.01
2023-08-22T00:16:03.430Z,20.94
2023-08-22T00:18:32.989Z,20.97
2023-08-22T00:21:02.416Z,20.92
2023-08-22T00:23:31.776Z,20.85
2023-08-22T00:26:01.193Z,20.96
2023-08-22T00:28:30.614Z,20.95
2023-08-22T00:31:00.050Z,20.92
2023-08-22T00:33:29.567Z,20.91
2023-08-22T00:35:58.894Z,20.83
2023-08-22T00:38:29.948Z,20.86
2023-08-22T00:41:00.320Z,20.75
2023-08-22T00:43:29.668Z,20.85
2023-08-22T00:45:59.656Z,20.84
2023-08-22T00:48:29.384Z,20.89
2023-08-22T00:50:59.326Z,20.80
2023-08-22T00:53:28.905Z,20.85
2023-08-22T00:55:58.300Z,20.78
2023-08-22T00:58:27.721Z,20.75
2023-08-22T01:00:57.273Z,20.69
2023-08-22T01:03:26.745Z,20.65
2023-08-22T01:06:29.170Z,20.64
2023-08-22T01:09:40.561Z,20.69
2023-08-22T01:12:48.680Z,20.64
2023-08-22T01:15:32.732Z,20.62
2023-08-22T01:18:08.186Z,20.52
2023-08-22T01:20:37.502Z,20.50
2023-08-22T01:23:07.029Z,20.44
2023-08-22T01:25:38.637Z,20.45
2023-08-22T01:28:46.452Z,20.42
2023-08-22T01:31:49.016Z,20.36
2023-08-22T01:34:28.470Z,20.35
2023-08-22T01:37:00.748Z,20.24
2023-08-22T01:39:32.895Z,20.34
2023-08-22T01:42:03.137Z,20.25
2023-08-22T01:44:32.447Z,20.29
2023-08-22T01:47:02.794Z,20.22
2023-08-22T01:49:36.996Z,20.28
2023-08-22T01:52:06.581Z,20.28
2023-08-22T01:54:38.835Z,20.23
2023-08-22T01:57:08.160Z,20.28
2023-08-22T01:59:38.267Z,20.22
2023-08-22T02:02:09.117Z,20.14
2023-08-22T02:04:38.520Z,20.18
2023-08-22T02:07:07.894Z,20.13
2023-08-22T02:09:37.213Z,20.12
2023-08-22T02:12:06.895Z,20.02
2023-08-22T02:14:36.226Z,20.06
2023-08-22T02:17:05.703Z,20.08
2023-08-22T02:19:35.101Z,20.08
2023-08-22T02:22:05.953Z,20.08
2023-08-22T02:24:35.643Z,20.08
2023-08-22T02:27:05.406Z,20.09
2023-08-22T02:29:36.245Z,20.18
2023-08-22T02:32:06.113Z,20.18
2023-08-22T02:34:36.512Z,20.29
2023-08-22T02:37:06.054Z,20.23
2023-08-22T02:39:35.635Z,20.34
2023-08-22T02:42:05.570Z,20.34
2023-08-22T02:44:35.111Z,20.30
2023-08-22T02:47:04.677Z,20.25
2023-08-22T02:49:34.022Z,20.33
2023-08-22T02:52:04.784Z,20.23
2023-08-22T02:54:34.322Z,20.18
2023-08-22T02:57:03.860Z,20.04
2023-08-22T02:59:33.256Z,20.04
2023-08-22T03:02:03.332Z,20.07
2023-08-22T03:04:34.457Z,20.10
2023-08-22T03:07:07.142Z,20.09
2023-08-22T03:09:38.466Z,19.97
2023-08-22T03:12:08.280Z,20.03
2023-08-22T03:14:37.664Z,19.94
2023-08-22T03:17:07.143Z,19.89
2023-08-22T03:19:36.614Z,19.92
2023-08-22T03:22:07.197Z,19.81
2023-08-22T03:24:36.748Z,19.81
2023-08-22T03:27:06.270Z,19.88
2023-08-22T03:29:35.827Z,19.82
2023-08-22T03:32:07.060Z,19.79
2023-08-22T03:34:36.612Z,19.78
2023-08-22T03:37:06.414Z,19.79
2023-08-22T03:39:36.346Z,19.81
2023-08-22T03:42:06.338Z,19.79
2023-08-22T03:44:35.782Z,19.85
2023-08-22T03:47:06.386Z,19.78
2023-08-22T03:49:45.980Z,19.78
2023-08-22T03:52:16.282Z,19.88
2023-08-22T03:54:46.830Z,19.83
2023-08-22T03:57:16.230Z,19.94
2023-08-22T03:59:45.623Z,19.90
2023-08-22T04:02:15.070Z,19.93
2023-08-22T04:04:44.604Z,19.98
2023-08-22T04:07:15.560Z,20.03
2023-08-22T04:09:44.861Z,20.06
2023-08-22T04:12:14.182Z,20.07
2023-08-22T04:14:43.551Z,20.12
2023-08-22T04:17:12.924Z,20.11
2023-08-22T04:19:43.327Z,20.17
2023-08-22T04:22:12.798Z,20.11
2023-08-22T04:24:42.541Z,20.22
2023-08-22T04:27:15.006Z,20.26
2023-08-22T04:29:45.366Z,20.27
2023-08-22T04:32:14.834Z,20.31
2023-08-22T04:34:44.190Z,20.34
2023-08-22T04:37:13.603Z,20.47
2023-08-22T04:39:42.988Z,20.61
2023-08-22T04:42:27.240Z,20.68
2023-08-22T04:45:04.082Z,20.84
2023-08-22T04:47:34.199Z,20.90
2023-08-22T04:50:06.950Z,21.00
2023-08-22T04:52:36.386Z,21.08
2023-08-22T04:55:09.066Z,21.03
2023-08-22T04:57:38.500Z,21.06
2023-08-22T05:00:11.007Z,21.16
2023-08-22T05:02:40.550Z,21.23
2023-08-22T05:05:11.499Z,21.31
2023-08-22T05:07:41.478Z,21.31
2023-08-22T05:10:11.150Z,21.47
2023-08-22T05:12:40.588Z,21.56
2023-08-22T05:15:10.941Z,21.57
2023-08-22T05:17:40.840Z,21.72
2023-08-22T05:20:14.636Z,21.84
2023-08-22T05:22:46.084Z,21.96
2023-08-22T05:25:15.561Z,22.07
2023-08-22T05:27:45.180Z,22.17
2023-08-22T05:30:14.592Z,22.25
2023-08-22T05:32:44.337Z,22.32
2023-08-22T05:35:13.938Z,22.51
2023-08-22T05:37:43.485Z,22.62
2023-08-22T05:40:13.273Z,22.75
2023-08-22T05:42:42.898Z,22.88
2023-08-22T05:45:13.166Z,22.98
2023-08-22T05:47:44.613Z,23.24
2023-08-22T05:50:15.130Z,23.31
2023-08-22T05:52:47.509Z,23.28
2023-08-22T05:55:20.131Z,23.56
2023-08-22T05:57:49.846Z,23.80
2023-08-22T06:00:21.384Z,23.84
2023-08-22T06:03:01.464Z,23.79
2023-08-22T06:05:31.714Z,23.90
2023-08-22T06:08:02.275Z,23.94
2023-08-22T06:10:31.805Z,24.19
2023-08-22T06:13:01.309Z,24.22
2023-08-22T06:15:31.638Z,24.36
2023-08-22T06:18:06.898Z,24.54
2023-08-22T06:20:42.337Z,24.56
2023-08-22T06:23:11.964Z,24.40
2023-08-22T06:25:43.139Z,24.46
2023-08-22T06:28:12.899Z,24.49
2023-08-22T06:30:42.290Z,24.50
2023-08-22T06:33:11.781Z,24.56
2023-08-22T06:35:41.124Z,24.47
2023-08-22T06:40:39.939Z,24.26
2023-08-22T06:43:15.642Z,24.09
2023-08-22T06:45:48.522Z,23.96
2023-08-22T06:48:34.635Z,24.02
2023-08-22T06:51:08.840Z,23.87
2023-08-22T06:53:38.702Z,23.93
2023-08-22T06:56:09.387Z,23.98
2023-08-22T06:58:40.086Z,24.15
2023-08-22T07:01:09.640Z,24.32
2023-08-22T07:03:39.380Z,24.48
2023-08-22T07:06:09.448Z,24.64
2023-08-22T07:08:40.291Z,25.01
2023-08-22T07:11:09.798Z,25.25
2023-08-22T07:13:39.429Z,25.33
2023-08-22T07:16:09.064Z,25.33
2023-08-22T07:18:38.634Z,25.48
2023-08-22T07:21:08.584Z,25.72
2023-08-22T07:23:38.445Z,25.74
2023-08-22T07:26:08.803Z,26.06
2023-08-22T07:28:38.506Z,26.05
2023-08-22T07:31:08.778Z,26.25
2023-08-22T07:33:38.364Z,26.09
2023-08-22T07:36:10.377Z,25.94
2023-08-22T07:38:39.853Z,25.74
2023-08-22T07:41:09.785Z,25.77
2023-08-22T07:43:39.501Z,25.82
2023-08-22T07:46:09.105Z,26.02
2023-08-22T07:48:38.642Z,26.06
2023-08-22T07:51:12.136Z,26.15
2023-08-22T07:53:42.134Z,26.26
2023-08-22T07:56:11.677Z,26.36
2023-08-22T07:58:41.470Z,26.33
2023-08-22T08:01:12.996Z,26.56
2023-08-22T08:03:42.810Z,26.45
2023-08-22T08:06:12.505Z,26.45
2023-08-22T08:08:41.942Z,26.59
2023-08-22T08:11:11.500Z,26.64
2023-08-22T08:13:41.098Z,26.78
2023-08-22T08:16:10.648Z,27.01
2023-08-22T08:18:40.203Z,27.21
2023-08-22T08:21:09.686Z,27.48
2023-08-22T08:23:39.176Z,27.88
2023-08-22T08:26:08.818Z,28.14
2023-08-22T08:28:38.570Z,28.37
2023-08-22T08:31:08.129Z,28.65
2023-08-22T08:33:37.938Z,28.87
2023-08-22T08:36:08.074Z,28.99
2023-08-22T08:38:37.565Z,28.91
2023-08-22T08:41:08.276Z,28.60
2023-08-22T08:43:38.391Z,28.54
2023-08-22T08:46:08.393Z,28.54
2023-08-22T08:48:39.894Z,28.35
2023-08-22T08:51:10.441Z,28.28
2023-08-22T08:53:42.864Z,28.44
2023-08-22T08:56:12.484Z,28.42
2023-08-22T08:58:42.014Z,28.29
2023-08-22T09:01:12.639Z,28.14
2023-08-22T09:03:42.300Z,27.98
2023-08-22T09:06:11.993Z,28.16
2023-08-22T09:08:42.453Z,28.15
2023-08-22T09:11:12.400Z,28.26
2023-08-22T09:13:55.738Z,28.40
2023-08-22T09:16:28.826Z,28.51
2023-08-22T09:19:01.657Z,28.31
2023-08-22T09:21:32.513Z,28.59
2023-08-22T09:24:11.976Z,28.98
2023-08-22T09:26:50.288Z,29.26
2023-08-22T09:29:36.170Z,29.61
2023-08-22T09:32:08.978Z,29.75
2023-08-22T09:34:39.103Z,29.71
2023-08-22T09:37:08.820Z,29.53
2023-08-22T09:39:39.589Z,29.48
2023-08-22T09:42:11.054Z,29.61
2023-08-22T09:44:40.803Z,29.53
2023-08-22T09:47:11.000Z,29.48
2023-08-22T09:49:42.218Z,29.43
2023-08-22T09:52:12.016Z,29.31
2023-08-22T09:54:42.470Z,29.25
2023-08-22T09:57:12.840Z,29.20
2023-08-22T09:59:51.146Z,29.34
2023-08-22T10:02:21.181Z,29.27
2023-08-22T10:04:52.572Z,29.37
2023-08-22T10:07:24.794Z,29.44
2023-08-22T10:09:55.797Z,29.54
2023-08-22T10:12:29.066Z,29.51
2023-08-22T10:15:05.086Z,29.50
2023-08-22T10:17:35.012Z,29.60
2023-08-22T10:20:12.542Z,29.69
2023-08-22T10:22:42.179Z,29.64
2023-08-22T10:25:12.643Z,29.85
2023-08-22T10:27:49.286Z,29.81
2023-08-22T10:30:20.997Z,29.88
2023-08-22T10:33:20.644Z,30.06
2023-08-22T10:36:08.979Z,30.24
2023-08-22T10:38:57.385Z,30.22
2023-08-22T10:41:57.240Z,30.34
2023-08-22T10:44:31.519Z,30.37
2023-08-22T10:47:17.652Z,30.49
2023-08-22T10:52:33.781Z,30.80
2023-08-22T10:55:11.118Z,30.90
2023-08-22T10:57:46.424Z,30.87
2023-08-22T11:00:24.708Z,31.05
2023-08-22T11:03:01.413Z,31.07
2023-08-22T11:05:31.682Z,31.08
2023-08-22T11:08:01.313Z,31.16
2023-08-22T11:10:35.324Z,31.29
2023-08-22T11:13:09.885Z,31.48
2023-08-22T11:15:42.484Z,31.50
2023-08-22T11:18:12.080Z,31.56
2023-08-22T11:20:43.976Z,31.67
2023-08-22T11:23:13.616Z,31.69
2023-08-22T11:25:43.096Z,31.80
2023-08-22T11:28:13.487Z,31.88
2023-08-22T11:30:43.301Z,31.90
2023-08-22T11:33:21.986Z,32.05
2023-08-22T11:35:53.712Z,32.16
2023-08-22T11:38:23.675Z,32.26
2023-08-22T11:40:55.117Z,32.31
2023-08-22T11:43:24.677Z,32.66
2023-08-22T11:45:54.271Z,32.69
2023-08-22T11:48:25.007Z,32.74
2023-08-22T11:50:54.439Z,32.80
2023-08-22T11:53:39.841Z,32.84
2023-08-22T11:56:09.757Z,32.98
2023-08-22T11:58:50.366Z,33.12
2023-08-22T12:01:24.203Z,33.15
2023-08-22T12:04:00.654Z,33.22
2023-08-22T12:06:30.596Z,33.21
2023-08-22T12:09:02.102Z,33.16
2023-08-22T12:11:31.973Z,33.12
2023-08-22T12:14:01.478Z,33.08
2023-08-22T12:16:31.026Z,33.06
2023-08-22T12:19:12.299Z,32.94
2023-08-22T12:21:41.674Z,32.93
2023-08-22T12:24:11.167Z,32.87
2023-08-22T12:26:40.623Z,32.90
2023-08-22T12:29:10.113Z,32.86
2023-08-22T12:31:41.318Z,32.84
2023-08-22T12:34:11.489Z,32.90
2023-08-22T12:36:40.980Z,32.93
2023-08-22T12:39:12.185Z,33.03
2023-08-22T12:41:42.144Z,33.03
2023-08-22T12:44:11.799Z,33.12
2023-08-22T12:46:42.365Z,33.00
2023-08-22T12:49:11.931Z,32.95
2023-08-22T12:51:41.517Z,33.04
2023-08-22T12:54:10.984Z,33.23
2023-08-22T12:56:41.737Z,34.09
2023-08-22T12:59:11.137Z,36.28
2023-08-22T13:01:40.658Z,38.87
2023-08-22T13:04:14.602Z,41.02
2023-08-22T13:06:44.733Z,43.08
2023-08-22T13:09:15.664Z,45.16
2023-08-22T13:11:45.266Z,46.90
2023-08-22T13:14:16.983Z,48.81
2023-08-22T13:16:46.612Z,50.61
2023-08-22T13:19:16.306Z,52.14
2023-08-22T13:21:49.600Z,53.42
2023-08-22T13:24:23.036Z,54.53
2023-08-22T13:26:52.533Z,55.44
2023-08-22T13:29:25.615Z,55.98
2023-08-22T13:31:55.243Z,56.51
2023-08-22T13:34:25.017Z,57.17
2023-08-22T13:36:54.663Z,57.36
2023-08-22T13:39:24.160Z,57.11
2023-08-22T13:41:53.634Z,56.80
2023-08-22T13:44:23.026Z,56.09
2023-08-22T13:46:52.925Z,56.37
2023-08-22T13:49:22.382Z,56.83
2023-08-22T13:51:51.825Z,57.43
2023-08-22T13:54:23.467Z,57.74
2023-08-22T13:56:53.095Z,57.83
2023-08-22T13:59:22.595Z,56.74
2023-08-22T14:01:52.213Z,56.52
2023-08-22T14:04:21.890Z,56.71
2023-08-22T14:06:53.279Z,53.93
2023-08-22T14:09:26.759Z,49.49
2023-08-22T14:11:56.952Z,46.77
2023-08-22T14:14:26.479Z,44.73
2023-08-22T14:16:55.990Z,43.18
2023-08-22T14:19:27.143Z,41.85
2023-08-22T14:21:56.603Z,41.00
2023-08-22T14:24:26.194Z,40.39
2023-08-22T14:26:55.664Z,39.74
2023-08-22T14:29:25.063Z,39.16
2023-08-22T14:31:54.548Z,38.61
2023-08-22T14:34:26.419Z,37.94
2023-08-22T14:37:00.627Z,37.51
2023-08-22T14:39:35.326Z,36.93
2023-08-22T14:42:05.274Z,36.49
2023-08-22T14:44:34.730Z,36.29
2023-08-22T14:47:04.545Z,35.85
2023-08-22T14:49:34.043Z,35.50
2023-08-22T14:52:03.698Z,35.47
2023-08-22T14:54:33.289Z,35.49
2023-08-22T14:57:02.868Z,35.18
2023-08-22T14:59:32.797Z,35.30
2023-08-22T15:02:02.516Z,35.19
2023-08-22T15:04:32.180Z,35.09
2023-08-22T15:07:02.422Z,34.92
2023-08-22T15:09:31.969Z,34.80
2023-08-22T15:12:01.496Z,34.58
2023-08-22T15:14:31.550Z,34.47
2023-08-22T15:17:01.326Z,34.31
2023-08-22T15:19:31.202Z,34.18
2023-08-22T15:22:01.035Z,34.06
2023-08-22T15:24:31.773Z,33.93
2023-08-22T15:27:01.375Z,33.67
2023-08-22T15:29:31.244Z,33.58
2023-08-22T15:32:01.109Z,33.38
2023-08-22T15:34:30.917Z,33.31
2023-08-22T15:37:00.445Z,33.22
2023-08-22T15:39:29.961Z,33.16
2023-08-22T15:41:59.685Z,33.22
2023-08-22T15:44:29.144Z,33.06
2023-08-22T15:46:58.721Z,32.94
2023-08-22T15:49:28.205Z,32.91
2023-08-22T15:51:57.951Z,32.85
2023-08-22T15:54:27.420Z,32.76
2023-08-22T15:56:56.889Z,32.70
2023-08-22T15:59:26.509Z,34.14
2023-08-22T16:01:55.897Z,36.86
2023-08-22T16:04:25.425Z,39.07
2023-08-22T16:06:55.293Z,40.79
2023-08-22T16:09:25.754Z,42.20
2023-08-22T16:11:58.874Z,43.15
2023-08-22T16:14:28.432Z,43.83
2023-08-22T16:16:57.952Z,44.30
2023-08-22T16:19:27.534Z,44.27
2023-08-22T16:21:57.064Z,42.40
2023-08-22T16:24:26.798Z,40.16
2023-08-22T16:26:56.612Z,38.56
2023-08-22T16:29:26.014Z,37.27
2023-08-22T16:31:56.055Z,36.19
2023-08-22T16:34:25.843Z,35.24
2023-08-22T16:36:55.393Z,34.45
2023-08-22T16:39:24.897Z,33.84
2023-08-22T16:41:54.478Z,33.16
2023-08-22T16:44:23.985Z,32.66
2023-08-22T16:46:53.469Z,32.12
2023-08-22T16:49:27.091Z,31.81
2023-08-22T16:51:56.874Z,31.37
2023-08-22T16:54:26.659Z,31.17
2023-08-22T16:56:56.152Z,30.79
2023-08-22T16:59:25.673Z,30.59
2023-08-22T17:01:56.166Z,30.34
2023-08-22T17:04:25.709Z,30.06
2023-08-22T17:06:55.541Z,30.00
2023-08-22T17:09:25.213Z,29.67
2023-08-22T17:11:54.714Z,29.48
2023-08-22T17:14:25.045Z,29.28
2023-08-22T17:16:54.939Z,29.02
2023-08-22T17:19:25.710Z,28.83
2023-08-22T17:21:56.361Z,28.61
2023-08-22T17:24:27.212Z,28.45
2023-08-22T17:26:57.407Z,28.36
2023-08-22T17:29:29.937Z,28.17
2023-08-22T17:32:00.666Z,28.15
2023-08-22T17:34:31.399Z,27.87
2023-08-22T17:37:03.744Z,27.82
2023-08-22T17:39:35.401Z,27.64
2023-08-22T17:42:14.274Z,27.68
2023-08-22T17:44:44.448Z,27.45
2023-08-22T17:47:25.710Z,27.30
2023-08-22T17:49:56.447Z,27.18
2023-08-22T17:52:26.479Z,27.03
2023-08-22T17:55:02.091Z,26.99
2023-08-22T17:57:32.988Z,26.78
2023-08-22T18:00:02.794Z,26.84
2023-08-22T18:02:41.914Z,26.74
2023-08-22T18:05:11.444Z,26.57
2023-08-22T18:07:40.953Z,26.51
2023-08-22T18:10:10.895Z,26.34
2023-08-22T18:12:40.392Z,26.37
2023-08-22T18:19:45.394Z,26.19
2023-08-22T18:22:17.152Z,26.09
2023-08-22T18:30:08.222Z,25.82
2023-08-22T18:32:42.313Z,25.81
2023-08-22T18:35:15.587Z,25.68
2023-08-22T18:53:16.899Z,25.20
2023-08-22T18:57:39.682Z,25.26
2023-08-22T19:00:12.172Z,25.03
2023-08-22T19:02:58.195Z,24.97
2023-08-22T19:05:28.619Z,24.89
2023-08-22T19:07:58.872Z,24.88
2023-08-22T19:20:20.797Z,24.67
2023-08-22T19:22:54.163Z,24.71
2023-08-22T19:25:48.000Z,24.55
2023-08-22T19:28:21.241Z,24.56
2023-08-22T19:31:03.331Z,24.50
2023-08-22T19:33:46.144Z,24.50
2023-08-22T19:36:27.266Z,24.34
2023-08-22T19:39:54.905Z,24.45
2023-08-22T19:46:09.777Z,24.11
2023-08-22T19:48:53.083Z,24.03
2023-08-22T19:51:34.716Z,23.94
2023-08-22T19:54:09.151Z,23.97
2023-08-22T20:04:45.122Z,23.71
2023-08-22T20:07:30.877Z,23.65
2023-08-22T20:10:09.554Z,23.61
2023-08-22T20:12:46.613Z,23.61
2023-08-22T20:15:18.584Z,23.59
2023-08-22T20:17:55.734Z,23.62
2023-08-22T20:20:32.138Z,23.63
2023-08-22T20:23:07.142Z,23.47
2023-08-22T20:25:39.507Z,23.44
2023-08-22T20:28:35.676Z,23.39
2023-08-22T20:31:11.377Z,23.40
2023-08-22T20:39:05.372Z,23.32
2023-08-22T20:41:35.055Z,23.32
2023-08-22T20:48:04.424Z,23.28
